This is the latest recevied weather packets stored in our database for station/object IZ3LCH-13. If no packets are shown the sender has not sent any weather packets the latest 1 day(s).
| Time | Temp. | Humidity | Pressure | Rain* | Wind** | Luminosity | Snow |
|---|---|---|---|---|---|---|---|
| 1836274677 | 16.67° C | 88% | 1024.6 hPa | 0 mm | 0.89 m/s, 11° | - | - |
| 1836274527 | 16.11° C | 88% | 1024.4 hPa | 0 mm | 0.45 m/s, 29° | - | - |
| 1836274377 | 16.67° C | 88% | 1024.4 hPa | 0 mm | 0.45 m/s, 339° | - | - |
| 1836274227 | 16.67° C | 88% | 1024.3 hPa | 0 mm | 0.45 m/s, 21° | - | - |
| 1836274077 | 16.67° C | 88% | 1024.2 hPa | 0 mm | 0.45 m/s, 323° | - | - |
| 1778013303 | 14.44° C | 83% | 1013 hPa | 0 mm | 2.24 m/s, 358° | - | - |
| 1778013003 | 14.44° C | 83% | 1012.9 hPa | 0 mm | 2.24 m/s, 1° | - | - |
| 1778012703 | 14.44° C | 83% | 1012.9 hPa | 0 mm | 2.68 m/s, 360° | - | - |
| 1778012403 | 14.44° C | 83% | 1013.1 hPa | 0 mm | 2.24 m/s, 2° | - | - |
| 1778012103 | 14.44° C | 83% | 1012.7 hPa | 0 mm | 2.24 m/s, 6° | - | - |
| 1778011803 | 14.44° C | 83% | 1013.2 hPa | 0 mm | 2.24 m/s, 2° | - | - |
| 1778011503 | 14.44° C | 83% | 1012.9 hPa | 0 mm | 2.24 m/s, 360° | - | - |
| 1778011203 | 14.44° C | 83% | 1012.6 hPa | 0 mm | 2.24 m/s, 360° | - | - |
| 1778010903 | 14.44° C | 83% | 1012.7 hPa | 0 mm | 2.68 m/s, 2° | - | - |
| 1778010603 | 14.44° C | 83% | 1012.8 hPa | 0 mm | 2.68 m/s, 3° | - | - |
| 1778010303 | 14.44° C | 83% | 1012.8 hPa | 0 mm | 2.68 m/s, 2° | - | - |
| 1778010003 | 14.44° C | 83% | 1012.6 hPa | 0 mm | 2.24 m/s, 2° | - | - |
| 1778009703 | 14.44° C | 83% | 1012.4 hPa | 0 mm | 2.24 m/s, 359° | - | - |
| 1778009403 | 14.44° C | 83% | 1012.6 hPa | 0 mm | 2.24 m/s, 358° | - | - |
| 1778009103 | 14.44° C | 83% | 1012.7 hPa | 0 mm | 2.24 m/s, 356° | - | - |
| 1778008803 | 14.44° C | 83% | 1012.7 hPa | 0 mm | 2.24 m/s, 356° | - | - |
| 1778008503 | 14.44° C | 83% | 1012.6 hPa | 0 mm | 1.79 m/s, 2° | - | - |
| 1778008203 | 14.44° C | 83% | 1012.8 hPa | 0 mm | 2.24 m/s, 360° | - | - |
| 1778007903 | 14.44° C | 83% | 1012.6 hPa | 0 mm | 2.24 m/s, 357° | - | - |
| 1778007603 | 14.44° C | 82% | 1012.7 hPa | 0 mm | 2.24 m/s, 1° | - | - |
* Rain latest hour (hover to see other rain measurements)
** Current wind speed in m/s (hover to see current wind gust speed)